createdAt,value
2018-11-07T00:02:22.046Z,14.80
2018-11-07T00:04:53.735Z,14.80
2018-11-07T00:07:23.905Z,16.10
2018-11-07T00:09:55.515Z,14.80
2018-11-07T00:12:24.912Z,16.10
2018-11-07T00:14:54.926Z,14.60
2018-11-07T00:17:24.467Z,14.70
2018-11-07T00:19:56.569Z,14.60
2018-11-07T00:22:26.041Z,14.60
2018-11-07T00:24:57.477Z,14.60
2018-11-07T00:27:28.421Z,13.80
2018-11-07T00:29:59.011Z,14.60
2018-11-07T00:32:29.114Z,14.50
2018-11-07T00:35:01.674Z,14.50
2018-11-07T00:37:33.540Z,14.40
2018-11-07T00:40:03.763Z,13.30
2018-11-07T00:42:33.850Z,14.30
2018-11-07T00:45:15.043Z,14.20
2018-11-07T00:47:50.408Z,15.70
2018-11-07T00:50:21.660Z,14.20
2018-11-07T00:52:58.478Z,15.40
2018-11-07T00:55:33.709Z,13.80
2018-11-07T00:58:07.322Z,14.20
2018-11-07T01:00:49.974Z,14.20
2018-11-07T01:03:26.787Z,14.00
2018-11-07T01:06:10.039Z,13.90
2018-11-07T01:08:47.914Z,13.90
2018-11-07T01:11:29.695Z,13.90
2018-11-07T01:14:02.357Z,13.90
2018-11-07T01:16:45.484Z,13.90
2018-11-07T01:19:21.783Z,13.90
2018-11-07T01:21:57.870Z,13.90
2018-11-07T01:24:33.706Z,14.00
2018-11-07T01:27:08.791Z,15.30
2018-11-07T01:29:47.432Z,13.90
2018-11-07T01:40:11.554Z,13.70
2018-11-07T01:42:47.500Z,13.30
2018-11-07T01:47:58.471Z,13.60
2018-11-07T01:53:10.920Z,13.30
2018-11-07T01:55:50.664Z,13.30
2018-11-07T01:58:22.043Z,13.20
2018-11-07T02:00:54.315Z,13.40
2018-11-07T02:03:29.539Z,15.10
2018-11-07T02:06:13.072Z,13.50
2018-11-07T02:08:50.135Z,13.50
2018-11-07T02:11:23.188Z,13.30
2018-11-07T02:14:01.403Z,13.20
2018-11-07T02:16:40.552Z,13.10
2018-11-07T02:19:21.332Z,13.00
2018-11-07T02:21:59.768Z,13.00
2018-11-07T02:24:35.338Z,12.90
2018-11-07T02:27:13.692Z,12.80
2018-11-07T02:29:50.355Z,12.60
2018-11-07T02:32:21.189Z,12.20
2018-11-07T02:37:31.833Z,12.20
2018-11-07T02:40:09.422Z,12.20
2018-11-07T02:42:48.561Z,12.30
2018-11-07T02:45:35.302Z,12.50
2018-11-07T02:48:13.779Z,12.70
2018-11-07T02:50:44.031Z,12.80
2018-11-07T02:55:50.877Z,12.80
2018-11-07T02:58:22.347Z,12.90
2018-11-07T03:00:52.639Z,12.70
2018-11-07T03:03:28.988Z,12.70
2018-11-07T03:08:35.296Z,12.40
2018-11-07T03:11:11.079Z,12.30
2018-11-07T03:13:42.820Z,12.30
2018-11-07T03:16:18.193Z,12.30
2018-11-07T03:18:50.403Z,12.40
2018-11-07T03:21:23.347Z,12.40
2018-11-07T03:23:58.059Z,12.50
2018-11-07T03:29:10.064Z,12.80
2018-11-07T03:31:40.970Z,12.80
2018-11-07T03:34:16.236Z,12.80
2018-11-07T03:36:52.877Z,14.40
2018-11-07T03:39:23.704Z,12.60
2018-11-07T03:41:58.760Z,12.50
2018-11-07T03:44:32.228Z,12.40
2018-11-07T03:47:08.520Z,12.20
2018-11-07T03:49:41.830Z,12.20
2018-11-07T03:52:13.868Z,12.20
2018-11-07T03:54:52.019Z,12.20
2018-11-07T03:57:23.071Z,12.30
2018-11-07T03:59:55.127Z,12.30
2018-11-07T04:02:30.887Z,12.20
2018-11-07T04:05:04.339Z,12.20
2018-11-07T04:10:22.622Z,12.10
2018-11-07T04:12:54.349Z,12.10
2018-11-07T04:15:27.988Z,12.00
2018-11-07T04:18:00.073Z,11.90
2018-11-07T04:20:34.806Z,11.80
2018-11-07T04:23:11.354Z,11.80
2018-11-07T04:25:50.252Z,11.80
2018-11-07T04:28:23.275Z,11.80
2018-11-07T04:30:54.815Z,11.80
2018-11-07T04:33:33.962Z,12.70
2018-11-07T04:36:10.635Z,11.80
2018-11-07T04:43:57.486Z,11.80
2018-11-07T04:46:31.243Z,12.40
2018-11-07T04:49:08.284Z,11.70
2018-11-07T04:51:42.071Z,11.70
2018-11-07T04:54:17.006Z,11.80
2018-11-07T04:56:49.467Z,11.70
2018-11-07T04:59:21.222Z,11.60
2018-11-07T05:01:56.148Z,11.50
2018-11-07T05:04:29.314Z,11.50
2018-11-07T05:07:03.946Z,12.10
2018-11-07T05:09:36.854Z,11.50
2018-11-07T05:12:08.068Z,11.50
2018-11-07T05:14:41.752Z,11.40
2018-11-07T05:17:12.090Z,11.40
2018-11-07T05:19:42.607Z,11.30
2018-11-07T05:22:12.623Z,12.90
2018-11-07T05:24:43.213Z,11.40
2018-11-07T05:27:26.132Z,11.40
2018-11-07T05:30:02.959Z,11.10
2018-11-07T05:32:33.960Z,11.10
2018-11-07T05:35:12.007Z,11.20
2018-11-07T05:37:47.534Z,11.20
2018-11-07T05:40:20.906Z,13.00
2018-11-07T05:42:53.347Z,11.10
2018-11-07T05:48:05.913Z,10.90
2018-11-07T05:50:36.378Z,10.90
2018-11-07T05:53:09.715Z,10.80
2018-11-07T05:55:41.147Z,10.90
2018-11-07T05:58:11.653Z,10.90
2018-11-07T06:00:46.711Z,10.80
2018-11-07T06:03:17.315Z,10.80
2018-11-07T06:05:48.983Z,10.80
2018-11-07T06:08:26.892Z,10.70
2018-11-07T06:11:05.118Z,10.80
2018-11-07T06:13:40.854Z,10.90
2018-11-07T06:19:05.199Z,10.90
2018-11-07T06:21:45.418Z,11.00
2018-11-07T06:24:24.766Z,11.10
2018-11-07T06:26:58.331Z,11.00
2018-11-07T06:29:28.061Z,11.10
2018-11-07T06:32:01.814Z,11.00
2018-11-07T06:37:17.308Z,11.00
2018-11-07T06:39:46.621Z,11.00
2018-11-07T06:42:17.929Z,11.00
2018-11-07T06:44:48.874Z,11.00
2018-11-07T06:47:23.529Z,11.80
2018-11-07T06:49:54.006Z,10.90
2018-11-07T06:52:33.224Z,10.80
2018-11-07T06:55:02.743Z,10.80
2018-11-07T06:57:33.639Z,10.80
2018-11-07T07:00:24.547Z,10.80
2018-11-07T07:03:01.239Z,10.90
2018-11-07T07:05:33.119Z,10.90
2018-11-07T07:08:03.776Z,11.00
2018-11-07T07:10:56.924Z,11.00
2018-11-07T07:13:28.969Z,11.30
2018-11-07T07:15:58.594Z,11.20
2018-11-07T07:18:31.754Z,11.20
2018-11-07T07:21:06.363Z,11.20
2018-11-07T07:23:37.104Z,12.80
2018-11-07T07:26:20.542Z,11.40
2018-11-07T07:34:13.863Z,11.70
2018-11-07T07:36:50.225Z,11.80
2018-11-07T07:39:30.200Z,11.20
2018-11-07T07:42:04.382Z,11.90
2018-11-07T07:44:41.168Z,11.80
2018-11-07T07:47:24.618Z,11.90
2018-11-07T07:50:02.912Z,12.10
2018-11-07T07:52:41.026Z,10.60
2018-11-07T07:55:13.318Z,12.30
2018-11-07T07:57:47.440Z,12.30
2018-11-07T08:00:19.615Z,12.40
2018-11-07T08:02:54.463Z,12.90
2018-11-07T08:05:27.705Z,12.70
2018-11-07T08:08:00.170Z,12.90
2018-11-07T08:10:42.833Z,13.50
2018-11-07T08:13:18.124Z,13.20
2018-11-07T08:15:52.212Z,13.20
2018-11-07T08:18:22.017Z,13.30
2018-11-07T08:20:52.457Z,13.30
2018-11-07T08:23:26.757Z,13.50
2018-11-07T08:25:58.143Z,13.70
2018-11-07T08:31:44.452Z,13.90
2018-11-07T08:34:31.881Z,14.00
2018-11-07T08:37:21.668Z,14.00
2018-11-07T08:42:48.802Z,14.20
2018-11-07T08:45:26.477Z,14.20
2018-11-07T08:48:00.410Z,14.30
2018-11-07T08:53:10.633Z,14.60
2018-11-07T08:55:47.534Z,14.70
2018-11-07T08:58:23.350Z,14.70
2018-11-07T09:00:59.696Z,14.80
2018-11-07T09:03:30.559Z,14.10
2018-11-07T09:08:44.355Z,14.70
2018-11-07T09:11:15.774Z,14.70
2018-11-07T09:16:30.825Z,14.90
2018-11-07T09:19:07.659Z,15.00
2018-11-07T09:21:44.747Z,15.20
2018-11-07T09:24:16.376Z,15.40
2018-11-07T09:26:48.371Z,15.50
2018-11-07T09:29:19.144Z,15.60
2018-11-07T09:31:52.831Z,15.70
2018-11-07T09:34:29.871Z,15.80
2018-11-07T09:37:03.896Z,16.00
2018-11-07T09:39:37.200Z,16.10
2018-11-07T09:42:09.332Z,16.20
2018-11-07T09:44:40.640Z,16.30
2018-11-07T09:47:19.588Z,16.40
2018-11-07T09:49:55.332Z,16.50
2018-11-07T09:52:29.871Z,17.20
2018-11-07T09:55:01.878Z,16.70
2018-11-07T09:57:45.752Z,17.70
2018-11-07T10:00:21.112Z,17.90
2018-11-07T10:03:01.028Z,19.30
2018-11-07T10:05:35.658Z,20.40
2018-11-07T10:08:11.316Z,21.10
2018-11-07T10:10:45.447Z,19.60
2018-11-07T10:13:24.293Z,22.20
2018-11-07T10:16:01.132Z,22.90
2018-11-07T10:18:37.581Z,23.20
2018-11-07T10:23:55.588Z,23.30
2018-11-07T10:29:12.911Z,23.50
2018-11-07T10:34:38.208Z,23.50
2018-11-07T10:37:13.859Z,23.40
2018-11-07T10:45:40.251Z,23.90
2018-11-07T10:48:30.113Z,24.00
2018-11-07T10:53:52.826Z,22.90
2018-11-07T11:04:42.312Z,23.80
2018-11-07T11:18:25.622Z,23.40
2018-11-07T11:20:57.139Z,24.20
2018-11-07T11:23:28.485Z,24.40
2018-11-07T11:25:57.949Z,24.40
2018-11-07T11:28:27.344Z,24.00
2018-11-07T11:30:57.212Z,23.40
2018-11-07T11:33:26.984Z,24.20
2018-11-07T11:35:56.596Z,23.20
2018-11-07T11:38:27.245Z,23.30
2018-11-07T11:40:59.726Z,22.80
2018-11-07T11:43:29.212Z,22.00
2018-11-07T11:46:02.884Z,21.20
2018-11-07T11:48:34.911Z,20.70
2018-11-07T11:51:05.040Z,20.40
2018-11-07T11:53:34.919Z,20.20
2018-11-07T11:56:06.326Z,20.00
2018-11-07T11:58:36.994Z,20.00
2018-11-07T12:01:07.127Z,20.00
2018-11-07T12:03:37.030Z,20.00
2018-11-07T12:06:07.130Z,20.10
2018-11-07T12:08:40.799Z,20.20
2018-11-07T12:11:10.859Z,20.30
2018-11-07T12:13:40.079Z,21.80
2018-11-07T12:16:09.396Z,20.30
2018-11-07T12:18:39.449Z,20.30
2018-11-07T12:21:09.165Z,20.10
2018-11-07T12:23:39.609Z,20.60
2018-11-07T12:26:14.298Z,21.50
2018-11-07T12:28:43.798Z,22.40
2018-11-07T12:31:13.488Z,23.50
2018-11-07T12:33:46.862Z,24.10
2018-11-07T12:36:21.668Z,25.00
2018-11-07T12:38:53.197Z,26.30
2018-11-07T12:44:02.266Z,27.00
2018-11-07T12:46:33.044Z,26.20
2018-11-07T12:49:07.509Z,25.70
2018-11-07T12:54:14.923Z,22.80
2018-11-07T12:56:47.066Z,22.20
2018-11-07T12:59:20.136Z,21.90
2018-11-07T13:01:52.499Z,21.50
2018-11-07T13:04:29.971Z,21.20
2018-11-07T13:07:05.056Z,21.90
2018-11-07T13:09:40.193Z,20.90
2018-11-07T13:12:14.380Z,20.70
2018-11-07T13:14:56.352Z,20.70
2018-11-07T13:17:26.135Z,20.50
2018-11-07T13:19:56.853Z,20.30
2018-11-07T13:25:10.410Z,20.20
2018-11-07T13:27:40.825Z,20.20
2018-11-07T13:30:17.523Z,20.00
2018-11-07T13:32:48.908Z,19.60
2018-11-07T13:35:21.671Z,19.00
2018-11-07T13:37:54.142Z,19.80
2018-11-07T13:40:34.470Z,19.50
2018-11-07T13:43:11.741Z,19.20
2018-11-07T13:45:46.807Z,19.30
2018-11-07T13:48:22.126Z,19.40
2018-11-07T13:51:03.955Z,19.40
2018-11-07T13:56:17.624Z,18.90
2018-11-07T13:59:00.534Z,19.20
2018-11-07T14:01:38.616Z,19.00
2018-11-07T14:04:10.678Z,18.90
2018-11-07T14:06:43.935Z,19.00
2018-11-07T14:11:50.701Z,19.00
2018-11-07T14:14:26.470Z,19.00
2018-11-07T14:16:57.739Z,19.00
2018-11-07T14:19:42.689Z,17.20
2018-11-07T14:22:19.897Z,18.80
2018-11-07T14:25:07.194Z,18.80
2018-11-07T14:30:35.061Z,18.70
2018-11-07T14:33:12.770Z,18.70
2018-11-07T14:35:52.543Z,18.80
2018-11-07T14:38:35.781Z,18.70
2018-11-07T14:44:00.422Z,18.50
2018-11-07T14:49:15.675Z,18.30
2018-11-07T14:51:53.361Z,18.20
2018-11-07T14:54:35.855Z,18.30
2018-11-07T14:57:06.799Z,18.20
2018-11-07T14:59:41.311Z,18.20
2018-11-07T15:02:17.957Z,18.30
2018-11-07T15:07:38.083Z,18.20
2018-11-07T15:10:24.574Z,16.90
2018-11-07T15:13:06.552Z,18.10
2018-11-07T15:15:40.912Z,18.10
2018-11-07T15:18:23.950Z,16.10
2018-11-07T15:20:57.044Z,18.10
2018-11-07T15:24:11.208Z,16.60
2018-11-07T15:26:47.722Z,17.80
2018-11-07T15:29:22.367Z,17.80
2018-11-07T15:31:57.065Z,17.50
2018-11-07T15:37:35.812Z,17.60
2018-11-07T16:00:23.400Z,17.00
2018-11-07T16:05:33.886Z,17.00
2018-11-07T16:08:04.582Z,16.90
2018-11-07T16:16:20.330Z,16.80
2018-11-07T16:19:00.247Z,18.30
2018-11-07T16:21:30.684Z,16.70
2018-11-07T16:24:03.054Z,16.70
2018-11-07T16:26:33.085Z,16.70
2018-11-07T16:29:02.971Z,16.60
2018-11-07T16:31:34.126Z,16.40
2018-11-07T16:34:03.581Z,16.40
2018-11-07T16:36:34.849Z,16.60
2018-11-07T16:39:08.776Z,16.30
2018-11-07T16:41:39.199Z,16.30
2018-11-07T16:44:10.364Z,18.80
2018-11-07T16:46:48.005Z,16.10
2018-11-07T16:49:27.574Z,16.00
2018-11-07T16:52:02.240Z,16.00
2018-11-07T16:54:32.606Z,15.90
2018-11-07T16:57:03.766Z,15.90
2018-11-07T16:59:34.680Z,15.90
2018-11-07T17:02:05.072Z,15.80
2018-11-07T17:04:42.040Z,15.80
2018-11-07T17:07:11.350Z,15.70
2018-11-07T17:09:53.292Z,15.60
2018-11-07T17:12:26.163Z,15.60
2018-11-07T17:14:56.200Z,13.80
2018-11-07T17:20:08.879Z,15.50
2018-11-07T17:22:39.881Z,14.00
2018-11-07T17:25:14.059Z,15.30
2018-11-07T17:27:44.233Z,17.10
2018-11-07T17:30:19.772Z,15.30
2018-11-07T17:32:52.079Z,15.20
2018-11-07T17:35:28.192Z,16.20
2018-11-07T17:37:58.389Z,15.20
2018-11-07T17:40:34.081Z,15.20
2018-11-07T17:43:08.906Z,15.50
2018-11-07T17:45:42.887Z,15.10
2018-11-07T17:48:13.822Z,15.10
2018-11-07T17:50:48.450Z,15.00
2018-11-07T17:53:21.938Z,15.00
2018-11-07T17:55:52.486Z,15.00
2018-11-07T17:58:27.814Z,14.90
2018-11-07T18:01:00.627Z,14.90
2018-11-07T18:03:31.330Z,14.90
2018-11-07T18:06:06.674Z,14.90
2018-11-07T18:08:44.891Z,14.90
2018-11-07T18:11:27.288Z,14.60
2018-11-07T18:13:59.512Z,14.90
2018-11-07T18:16:30.923Z,14.90
2018-11-07T18:19:09.380Z,14.80
2018-11-07T18:21:43.997Z,14.80
2018-11-07T18:24:18.246Z,14.80
2018-11-07T18:26:51.708Z,14.80
2018-11-07T18:29:22.478Z,14.80
2018-11-07T18:32:01.111Z,15.30
2018-11-07T18:34:32.587Z,14.70
2018-11-07T18:37:03.821Z,14.70
2018-11-07T18:39:43.419Z,14.70
2018-11-07T18:42:20.500Z,14.60
2018-11-07T18:45:50.074Z,14.60
2018-11-07T18:48:24.251Z,14.50
2018-11-07T18:54:01.011Z,14.20
2018-11-07T18:59:25.116Z,14.40
2018-11-07T19:02:18.558Z,14.40
2018-11-07T19:04:52.406Z,14.40
2018-11-07T19:07:25.107Z,14.40
2018-11-07T19:09:57.794Z,14.30
2018-11-07T19:12:32.880Z,14.30
2018-11-07T19:15:04.584Z,14.20
2018-11-07T19:17:38.273Z,14.00
2018-11-07T19:20:08.438Z,14.40
2018-11-07T19:22:42.033Z,13.70
2018-11-07T19:25:18.023Z,13.60
2018-11-07T19:27:48.676Z,13.50
2018-11-07T19:30:24.894Z,13.60
2018-11-07T19:32:55.175Z,13.40
2018-11-07T19:35:25.654Z,13.90
2018-11-07T19:38:02.195Z,13.40
2018-11-07T19:40:32.055Z,13.40
2018-11-07T19:43:06.606Z,11.00
2018-11-07T19:45:40.101Z,13.40
2018-11-07T19:48:14.484Z,13.30
2018-11-07T19:50:45.891Z,13.30
2018-11-07T19:53:18.880Z,13.30
2018-11-07T19:55:51.997Z,16.10
2018-11-07T20:08:34.388Z,13.30
2018-11-07T20:11:16.101Z,13.20
2018-11-07T20:13:51.115Z,14.30
2018-11-07T20:19:57.095Z,13.20
2018-11-07T20:22:36.739Z,13.20
2018-11-07T20:25:12.096Z,13.20
2018-11-07T20:27:46.929Z,13.10
2018-11-07T20:30:28.932Z,13.10
2018-11-07T20:33:02.842Z,13.00
2018-11-07T20:35:37.483Z,13.00
2018-11-07T20:38:16.284Z,13.10
2018-11-07T20:40:47.465Z,13.10
2018-11-07T20:43:19.677Z,13.10
2018-11-07T20:45:50.401Z,13.00
2018-11-07T20:48:21.601Z,13.00
2018-11-07T20:50:50.843Z,12.80
2018-11-07T20:53:31.977Z,14.30
2018-11-07T20:56:03.479Z,13.50
2018-11-07T20:58:40.654Z,13.40
2018-11-07T21:01:10.675Z,12.90
2018-11-07T21:03:46.736Z,12.90
2018-11-07T21:06:21.022Z,12.90
2018-11-07T21:17:04.776Z,13.10
2018-11-07T21:20:01.542Z,13.00
2018-11-07T21:25:32.063Z,14.10
2018-11-07T22:09:18.128Z,12.40
2018-11-07T22:15:12.376Z,12.40
2018-11-07T22:32:12.635Z,12.20
2018-11-07T22:35:03.946Z,12.20
2018-11-07T22:37:33.396Z,12.20
2018-11-07T22:40:03.048Z,13.10
2018-11-07T22:42:33.695Z,12.00
2018-11-07T22:45:19.093Z,11.30
2018-11-07T22:47:51.138Z,12.00
2018-11-07T22:50:23.719Z,12.00
2018-11-07T22:52:57.835Z,12.10
2018-11-07T22:59:06.117Z,12.20
2018-11-07T23:01:41.617Z,12.10
2018-11-07T23:04:13.525Z,12.10
2018-11-07T23:07:06.077Z,13.30
2018-11-07T23:09:55.335Z,13.20
2018-11-07T23:12:26.375Z,11.50
2018-11-07T23:14:57.365Z,11.40
2018-11-07T23:17:29.812Z,11.20
2018-11-07T23:22:57.307Z,11.30
2018-11-07T23:28:20.607Z,9.80
2018-11-07T23:33:50.573Z,11.30
2018-11-07T23:36:30.349Z,11.50
2018-11-07T23:39:09.725Z,11.70
2018-11-07T23:53:34.304Z,11.50
